createdAt,value
2022-12-29T00:01:16.733Z,51.53
2022-12-29T00:04:03.411Z,49.50
2022-12-29T00:06:50.094Z,51.50
2022-12-29T00:09:36.957Z,47.65
2022-12-29T00:12:23.227Z,50.47
2022-12-29T00:15:28.339Z,48.38
2022-12-29T00:18:14.639Z,49.40
2022-12-29T00:21:19.341Z,51.35
2022-12-29T00:24:24.691Z,54.88
2022-12-29T00:27:31.390Z,52.88
2022-12-29T00:30:38.267Z,48.72
2022-12-29T00:33:48.644Z,48.97
2022-12-29T00:36:41.661Z,53.15
2022-12-29T00:39:57.407Z,53.17
2022-12-29T00:43:04.007Z,52.65
2022-12-29T00:45:50.369Z,51.35
2022-12-29T00:49:01.804Z,52.85
2022-12-29T00:51:48.302Z,53.30
2022-12-29T00:54:35.847Z,55.17
2022-12-29T00:57:22.420Z,54.03
2022-12-29T01:00:09.192Z,53.03
2022-12-29T01:02:55.914Z,55.00
2022-12-29T01:05:42.343Z,53.92
2022-12-29T01:08:29.435Z,57.80
2022-12-29T01:11:16.224Z,61.28
2022-12-29T01:14:04.128Z,63.42
2022-12-29T01:16:50.739Z,57.10
2022-12-29T01:19:37.252Z,63.13
2022-12-29T01:22:23.376Z,62.05
2022-12-29T01:25:09.644Z,61.67
2022-12-29T01:27:58.091Z,61.42
2022-12-29T01:30:45.722Z,62.55
2022-12-29T01:33:33.321Z,64.07
2022-12-29T01:36:20.860Z,60.47
2022-12-29T01:39:08.557Z,68.43
2022-12-29T01:41:54.872Z,65.43
2022-12-29T01:44:54.556Z,64.85
2022-12-29T01:47:44.454Z,66.03
2022-12-29T01:50:33.372Z,60.90
2022-12-29T01:53:22.255Z,65.65
2022-12-29T01:56:09.569Z,77.63
2022-12-29T01:59:02.058Z,71.53
2022-12-29T02:01:48.534Z,66.25
2022-12-29T02:04:35.642Z,67.57
2022-12-29T02:07:23.719Z,65.75
2022-12-29T02:10:10.156Z,73.10
2022-12-29T02:12:56.377Z,72.50
2022-12-29T02:15:43.339Z,71.22
2022-12-29T02:18:35.689Z,78.43
2022-12-29T02:21:25.500Z,80.35
2022-12-29T02:24:25.634Z,78.15
2022-12-29T02:27:23.953Z,81.70
2022-12-29T02:30:13.129Z,84.25
2022-12-29T02:33:02.357Z,92.05
2022-12-29T02:35:56.807Z,81.65
2022-12-29T02:38:43.014Z,83.18
2022-12-29T02:41:34.439Z,91.93
2022-12-29T02:44:29.031Z,86.90
2022-12-29T02:47:24.197Z,82.25
2022-12-29T02:50:10.507Z,82.63
2022-12-29T02:53:01.468Z,89.43
2022-12-29T02:55:51.407Z,88.57
2022-12-29T02:58:37.792Z,84.80
2022-12-29T03:01:27.366Z,82.22
2022-12-29T03:04:26.023Z,81.60
2022-12-29T03:07:35.796Z,83.82
2022-12-29T03:10:29.762Z,73.25
2022-12-29T03:13:53.461Z,76.10
2022-12-29T03:16:47.654Z,78.15
2022-12-29T03:19:42.083Z,82.32
2022-12-29T03:22:32.509Z,76.63
2022-12-29T03:25:37.966Z,74.95
2022-12-29T03:28:31.118Z,71.45
2022-12-29T03:31:18.489Z,78.00
2022-12-29T03:34:08.504Z,73.22
2022-12-29T03:37:02.770Z,76.65
2022-12-29T03:39:49.139Z,76.72
2022-12-29T03:42:37.110Z,70.95
2022-12-29T03:45:23.520Z,73.13
2022-12-29T03:48:10.200Z,77.13
2022-12-29T03:50:58.791Z,75.30
2022-12-29T03:53:45.487Z,71.85
2022-12-29T03:56:32.772Z,72.93
2022-12-29T03:59:19.141Z,74.85
2022-12-29T04:02:05.452Z,68.97
2022-12-29T04:04:52.205Z,67.03
2022-12-29T04:07:38.730Z,64.50
2022-12-29T04:10:25.782Z,65.22
2022-12-29T04:13:16.103Z,64.22
2022-12-29T04:16:05.270Z,64.18
2022-12-29T04:18:52.423Z,61.65
2022-12-29T04:21:39.163Z,60.20
2022-12-29T04:24:25.405Z,53.45
2022-12-29T04:27:12.129Z,55.55
2022-12-29T04:30:19.419Z,55.38
2022-12-29T04:33:16.900Z,53.00
2022-12-29T04:36:05.851Z,53.83
2022-12-29T04:38:52.446Z,58.70
2022-12-29T04:41:39.485Z,53.88
2022-12-29T04:44:28.707Z,52.58
2022-12-29T04:47:14.813Z,53.17
2022-12-29T04:50:25.677Z,49.55
2022-12-29T04:53:17.647Z,52.95
2022-12-29T04:56:06.070Z,51.78
2022-12-29T04:58:52.484Z,53.03
2022-12-29T05:01:40.745Z,57.05
2022-12-29T05:04:27.376Z,58.03
2022-12-29T05:07:13.922Z,57.05
2022-12-29T05:10:01.467Z,58.38
2022-12-29T05:12:48.141Z,58.65
2022-12-29T05:15:35.494Z,59.53
2022-12-29T05:18:21.727Z,69.95
2022-12-29T05:21:08.897Z,61.47
2022-12-29T05:23:55.070Z,56.63
2022-12-29T05:26:41.909Z,67.10
2022-12-29T05:29:47.987Z,66.63
2022-12-29T05:32:34.343Z,65.07
2022-12-29T05:35:21.808Z,64.72
2022-12-29T05:38:08.663Z,66.03
2022-12-29T05:40:54.845Z,66.07
2022-12-29T05:44:01.564Z,67.05
2022-12-29T05:47:00.027Z,66.97
2022-12-29T05:50:04.577Z,68.32
2022-12-29T05:53:13.400Z,71.85
2022-12-29T05:56:02.671Z,68.80
2022-12-29T05:58:50.391Z,77.75
2022-12-29T06:01:37.538Z,69.00
2022-12-29T06:04:24.339Z,71.05
2022-12-29T06:07:10.765Z,89.22
2022-12-29T06:10:03.539Z,87.85
2022-12-29T06:12:53.500Z,93.32
2022-12-29T06:15:39.752Z,85.78
2022-12-29T06:18:28.618Z,96.15
2022-12-29T06:21:16.428Z,87.78
2022-12-29T06:24:03.612Z,101.50
2022-12-29T06:26:50.244Z,87.63
2022-12-29T06:29:38.936Z,100.00
2022-12-29T06:32:25.865Z,82.82
2022-12-29T06:35:15.973Z,89.75
2022-12-29T06:38:10.731Z,100.80
2022-12-29T06:40:57.626Z,122.82
2022-12-29T06:44:03.543Z,103.80
2022-12-29T06:47:05.945Z,139.85
2022-12-29T06:49:53.016Z,176.32
2022-12-29T06:52:39.393Z,218.50
2022-12-29T06:55:26.441Z,129.40
2022-12-29T06:58:13.316Z,226.45
2022-12-29T07:01:00.038Z,122.82
2022-12-29T07:03:46.099Z,119.53
2022-12-29T07:06:32.761Z,122.15
2022-12-29T07:09:19.882Z,154.40
2022-12-29T07:12:11.164Z,188.32
2022-12-29T07:14:57.945Z,122.20
2022-12-29T07:17:44.774Z,144.45
2022-12-29T07:20:32.152Z,164.15
2022-12-29T07:23:20.616Z,109.78
2022-12-29T07:26:09.085Z,195.75
2022-12-29T07:28:56.872Z,165.50
2022-12-29T07:31:43.997Z,110.70
2022-12-29T07:34:30.951Z,153.65
2022-12-29T07:37:18.239Z,130.07
2022-12-29T07:40:05.897Z,126.15
2022-12-29T07:42:52.975Z,113.45
2022-12-29T07:45:50.710Z,109.93
2022-12-29T07:48:38.249Z,111.15
2022-12-29T07:51:25.527Z,114.90
2022-12-29T07:54:14.215Z,104.60
2022-12-29T07:57:02.403Z,106.05
2022-12-29T07:59:55.089Z,93.38
2022-12-29T08:02:42.097Z,96.40
2022-12-29T08:05:29.119Z,91.13
2022-12-29T08:08:15.854Z,85.63
2022-12-29T08:11:02.660Z,91.53
2022-12-29T08:13:49.925Z,91.15
2022-12-29T08:16:39.600Z,79.90
2022-12-29T08:19:26.430Z,73.97
2022-12-29T08:22:13.370Z,68.97
2022-12-29T08:25:19.533Z,76.70
2022-12-29T08:28:06.096Z,75.53
2022-12-29T08:30:53.990Z,70.35
2022-12-29T08:33:41.100Z,67.88
2022-12-29T08:36:28.360Z,73.15
2022-12-29T08:39:15.451Z,73.50
2022-12-29T08:42:02.509Z,70.65
2022-12-29T08:44:49.295Z,66.57
2022-12-29T08:47:41.612Z,68.70
2022-12-29T08:50:27.784Z,68.75
2022-12-29T08:53:14.944Z,61.45
2022-12-29T08:56:05.415Z,65.57
2022-12-29T08:59:02.774Z,68.65
2022-12-29T09:01:50.630Z,63.22
2022-12-29T09:04:37.422Z,58.70
2022-12-29T09:07:23.960Z,57.33
2022-12-29T09:10:10.904Z,57.58
2022-12-29T09:12:57.352Z,62.25
2022-12-29T09:15:43.782Z,60.10
2022-12-29T09:18:30.083Z,57.78
2022-12-29T09:21:16.329Z,54.78
2022-12-29T09:24:02.580Z,50.20
2022-12-29T09:26:48.859Z,49.00
2022-12-29T09:29:35.328Z,52.30
2022-12-29T09:32:23.493Z,51.10
2022-12-29T09:35:10.021Z,49.20
2022-12-29T09:37:56.275Z,45.17
2022-12-29T09:40:42.311Z,48.42
2022-12-29T09:43:28.645Z,46.75
2022-12-29T09:46:20.965Z,52.17
2022-12-29T09:49:28.118Z,51.10
2022-12-29T09:52:16.819Z,47.38
2022-12-29T09:55:15.740Z,51.03
2022-12-29T09:58:07.783Z,47.10
2022-12-29T10:01:17.064Z,49.42
2022-12-29T10:04:06.937Z,45.97
2022-12-29T10:10:13.656Z,46.25
2022-12-29T10:13:23.212Z,44.88
2022-12-29T10:16:36.085Z,46.53
2022-12-29T10:19:35.482Z,49.95
2022-12-29T10:22:31.447Z,49.33
2022-12-29T10:25:20.347Z,47.00
2022-12-29T10:28:11.419Z,51.85
2022-12-29T10:31:05.040Z,46.83
2022-12-29T10:33:59.497Z,50.50
2022-12-29T10:36:49.977Z,51.45
2022-12-29T10:39:40.251Z,51.72
2022-12-29T10:42:31.066Z,53.22
2022-12-29T10:45:18.617Z,50.08
2022-12-29T10:48:08.416Z,44.35
2022-12-29T10:51:01.699Z,40.35
2022-12-29T10:53:51.905Z,39.28
2022-12-29T10:56:45.370Z,36.97
2022-12-29T10:59:32.791Z,33.25
2022-12-29T11:02:19.861Z,32.53
2022-12-29T11:05:12.419Z,36.42
2022-12-29T11:08:23.419Z,34.03
2022-12-29T11:11:11.023Z,30.73
2022-12-29T11:13:58.883Z,30.23
2022-12-29T11:16:46.400Z,33.35
2022-12-29T11:19:39.039Z,24.60
2022-12-29T11:22:30.237Z,27.95
2022-12-29T11:25:16.801Z,28.48
2022-12-29T11:28:03.217Z,26.80
2022-12-29T11:31:00.626Z,29.98
2022-12-29T11:33:47.713Z,26.42
2022-12-29T11:36:35.364Z,29.60
2022-12-29T11:39:43.102Z,30.13
2022-12-29T11:42:37.674Z,27.23
2022-12-29T11:45:25.484Z,27.92
2022-12-29T11:48:17.222Z,28.83
2022-12-29T11:51:03.574Z,30.65
2022-12-29T11:53:51.749Z,29.70
2022-12-29T11:56:43.137Z,35.50
2022-12-29T11:59:30.947Z,33.35
2022-12-29T12:02:42.615Z,34.80
2022-12-29T12:05:39.933Z,34.13
2022-12-29T12:08:45.383Z,31.10
2022-12-29T12:11:39.515Z,31.10
2022-12-29T12:14:31.227Z,32.75
2022-12-29T12:17:55.187Z,31.67
2022-12-29T12:20:47.488Z,33.90
2022-12-29T12:23:52.704Z,32.27
2022-12-29T12:26:41.948Z,34.25
2022-12-29T12:29:34.390Z,37.65
2022-12-29T12:32:20.658Z,36.10
2022-12-29T12:35:07.637Z,38.03
2022-12-29T12:38:08.328Z,38.75
2022-12-29T12:41:00.674Z,32.17
2022-12-29T12:44:03.301Z,35.17
2022-12-29T12:47:05.113Z,35.53
2022-12-29T12:50:00.401Z,35.45
2022-12-29T12:52:52.566Z,35.28
2022-12-29T12:55:38.834Z,34.60
2022-12-29T12:58:31.256Z,35.83
2022-12-29T13:01:27.024Z,35.45
2022-12-29T13:04:14.211Z,38.05
2022-12-29T13:07:16.877Z,38.13
2022-12-29T13:10:18.200Z,40.30
2022-12-29T13:13:23.571Z,40.47
2022-12-29T13:16:30.132Z,41.83
2022-12-29T13:19:16.494Z,39.15
2022-12-29T13:22:14.939Z,39.25
2022-12-29T13:25:15.548Z,39.17
2022-12-29T13:28:01.998Z,41.80
2022-12-29T13:30:51.485Z,46.03
2022-12-29T13:33:47.306Z,43.17
2022-12-29T13:37:01.611Z,45.35
2022-12-29T13:39:51.266Z,41.90
2022-12-29T13:42:37.934Z,43.28
2022-12-29T13:45:25.985Z,41.47
2022-12-29T13:48:28.159Z,49.70
2022-12-29T13:51:14.791Z,49.72
2022-12-29T13:54:28.902Z,50.55
2022-12-29T13:57:27.380Z,49.83
2022-12-29T14:00:15.089Z,51.42
2022-12-29T14:03:23.757Z,49.85
2022-12-29T14:06:15.865Z,57.20
2022-12-29T14:09:02.264Z,48.88
2022-12-29T14:11:49.029Z,54.90
2022-12-29T14:14:43.816Z,55.35
2022-12-29T14:17:30.086Z,57.00
2022-12-29T14:20:22.003Z,61.20
2022-12-29T14:23:11.587Z,62.17
2022-12-29T14:26:00.729Z,71.13
2022-12-29T14:28:48.374Z,71.30
2022-12-29T14:31:36.032Z,72.65
2022-12-29T14:34:22.008Z,66.78
2022-12-29T14:37:23.787Z,78.88
2022-12-29T14:40:21.072Z,66.05
2022-12-29T14:43:14.535Z,71.95
2022-12-29T14:46:02.751Z,72.05
2022-12-29T14:48:49.447Z,76.40
2022-12-29T14:51:37.878Z,79.50
2022-12-29T14:54:34.015Z,89.50
2022-12-29T14:57:26.785Z,80.38
2022-12-29T15:00:27.603Z,83.15
2022-12-29T15:03:26.431Z,85.50
2022-12-29T15:06:13.780Z,91.50
2022-12-29T15:09:21.526Z,78.15
2022-12-29T15:12:16.553Z,72.53
2022-12-29T15:15:03.856Z,76.65
2022-12-29T15:17:50.108Z,75.50
2022-12-29T15:20:36.502Z,73.15
2022-12-29T15:23:22.930Z,67.90
2022-12-29T15:26:10.286Z,71.60
2022-12-29T15:28:56.830Z,59.63
2022-12-29T15:31:49.525Z,62.50
2022-12-29T15:34:35.559Z,62.70
2022-12-29T15:37:23.533Z,63.35
2022-12-29T15:40:25.342Z,63.65
2022-12-29T15:43:17.974Z,63.05
2022-12-29T15:46:04.460Z,63.60
2022-12-29T15:48:51.309Z,54.67
2022-12-29T15:51:39.443Z,58.85
2022-12-29T15:54:26.346Z,54.83
2022-12-29T15:57:21.832Z,46.28
2022-12-29T16:00:28.098Z,48.55
2022-12-29T16:03:15.753Z,44.55
2022-12-29T16:06:10.068Z,43.13
2022-12-29T16:08:59.511Z,42.17
2022-12-29T16:11:47.387Z,40.60
2022-12-29T16:14:45.508Z,39.35
2022-12-29T16:17:33.803Z,39.85
2022-12-29T16:20:20.242Z,40.72
2022-12-29T16:23:07.059Z,43.78
2022-12-29T16:25:55.705Z,38.65
2022-12-29T16:28:43.600Z,38.25
2022-12-29T16:31:37.956Z,38.92
2022-12-29T16:34:32.047Z,38.13
2022-12-29T16:37:38.807Z,37.88
2022-12-29T16:40:28.014Z,38.92
2022-12-29T16:43:35.866Z,34.95
2022-12-29T16:46:32.366Z,38.85
2022-12-29T16:49:22.279Z,40.88
2022-12-29T16:52:14.995Z,35.88
2022-12-29T16:55:02.362Z,39.13
2022-12-29T16:57:50.038Z,39.38
2022-12-29T17:00:37.659Z,42.40
2022-12-29T17:03:24.459Z,36.88
2022-12-29T17:06:16.403Z,38.38
2022-12-29T17:09:02.696Z,38.97
2022-12-29T17:12:10.708Z,41.95
2022-12-29T17:15:06.028Z,39.38
2022-12-29T17:17:53.541Z,44.92
2022-12-29T17:20:40.815Z,48.22
2022-12-29T17:23:27.452Z,44.33
2022-12-29T17:26:14.356Z,45.58
2022-12-29T17:29:00.829Z,46.80
2022-12-29T17:31:47.013Z,53.47
2022-12-29T17:34:33.505Z,52.00
2022-12-29T17:37:29.874Z,54.63
2022-12-29T17:40:27.669Z,62.40
2022-12-29T17:43:17.349Z,56.85
2022-12-29T17:46:04.750Z,57.60
2022-12-29T17:48:53.851Z,64.47
2022-12-29T17:51:40.849Z,63.80
2022-12-29T17:54:27.349Z,65.13
2022-12-29T17:57:14.833Z,66.82
2022-12-29T18:00:01.299Z,70.95
2022-12-29T18:02:48.009Z,71.90
2022-12-29T18:05:35.112Z,72.97
2022-12-29T18:08:22.035Z,68.35
2022-12-29T18:11:22.307Z,74.20
2022-12-29T18:14:18.516Z,72.75
2022-12-29T18:17:12.489Z,77.88
2022-12-29T18:19:58.950Z,73.72
2022-12-29T18:22:46.849Z,69.63
2022-12-29T18:25:51.537Z,75.28
2022-12-29T18:28:41.379Z,79.50
2022-12-29T18:31:34.715Z,76.32
2022-12-29T18:34:44.754Z,74.35
2022-12-29T18:37:31.830Z,80.47
2022-12-29T18:40:19.960Z,81.13
2022-12-29T18:43:09.818Z,76.40
2022-12-29T18:45:56.861Z,71.00
2022-12-29T18:48:43.457Z,70.88
2022-12-29T18:51:30.627Z,61.08
2022-12-29T18:54:28.869Z,64.88
2022-12-29T18:57:18.487Z,58.17
2022-12-29T19:00:06.453Z,57.85
2022-12-29T19:02:54.641Z,56.47
2022-12-29T19:05:42.256Z,54.35
2022-12-29T19:08:31.340Z,53.20
2022-12-29T19:11:25.915Z,50.47
2022-12-29T19:14:16.849Z,48.03
2022-12-29T19:17:08.224Z,52.63
2022-12-29T19:19:55.291Z,46.95
2022-12-29T19:22:41.880Z,50.70
2022-12-29T19:29:02.167Z,49.67
2022-12-29T19:31:57.289Z,48.83
2022-12-29T19:34:43.380Z,52.53
2022-12-29T19:37:29.596Z,47.72
2022-12-29T19:40:18.714Z,48.67
2022-12-29T19:43:09.561Z,50.38
2022-12-29T19:45:55.923Z,50.55
2022-12-29T19:48:47.346Z,50.67
2022-12-29T19:51:38.853Z,50.15
2022-12-29T19:54:26.056Z,58.53
2022-12-29T19:57:14.702Z,50.90
2022-12-29T20:00:05.305Z,54.35
2022-12-29T20:03:21.234Z,57.15
2022-12-29T20:06:14.425Z,57.67
2022-12-29T20:12:08.608Z,59.00
2022-12-29T20:15:03.556Z,61.45
2022-12-29T20:21:05.076Z,61.78
2022-12-29T20:26:57.430Z,59.92
2022-12-29T20:32:44.420Z,65.72
2022-12-29T20:35:31.021Z,68.38
2022-12-29T20:38:20.713Z,59.72
2022-12-29T20:41:15.832Z,63.22
2022-12-29T20:44:02.119Z,69.25
2022-12-29T20:46:49.313Z,70.85
2022-12-29T20:49:35.518Z,70.15
2022-12-29T20:52:22.085Z,68.22
2022-12-29T20:55:11.003Z,63.72
2022-12-29T20:58:23.010Z,70.13
2022-12-29T21:01:07.863Z,72.25
2022-12-29T21:04:06.381Z,62.88
2022-12-29T21:06:53.243Z,63.40
2022-12-29T21:09:39.415Z,63.67
2022-12-29T21:12:26.227Z,61.20
2022-12-29T21:15:15.708Z,59.28
2022-12-29T21:18:02.899Z,55.85
2022-12-29T21:21:18.732Z,55.78
2022-12-29T21:27:15.655Z,61.20
2022-12-29T21:30:01.902Z,58.35
2022-12-29T21:32:48.752Z,59.97
2022-12-29T21:38:30.437Z,59.83
2022-12-29T21:51:50.974Z,63.85
2022-12-29T21:54:55.698Z,57.33
2022-12-29T21:58:00.887Z,64.63
2022-12-29T22:01:06.116Z,64.00
2022-12-29T22:04:11.397Z,65.38
2022-12-29T22:07:16.813Z,62.72
2022-12-29T22:10:22.480Z,63.63
2022-12-29T22:13:14.626Z,67.93
2022-12-29T22:16:04.252Z,64.60
2022-12-29T22:18:52.829Z,64.20
2022-12-29T22:21:39.273Z,64.07
2022-12-29T22:24:29.940Z,61.15
2022-12-29T22:27:16.840Z,60.83
2022-12-29T22:30:03.198Z,64.63
2022-12-29T22:32:49.375Z,66.53
2022-12-29T22:35:35.547Z,65.95
2022-12-29T22:38:21.786Z,62.38
2022-12-29T22:41:18.288Z,63.47
2022-12-29T22:44:05.781Z,67.03
2022-12-29T22:46:52.029Z,66.88
2022-12-29T22:49:38.208Z,65.97
2022-12-29T22:52:24.393Z,64.43
2022-12-29T22:55:10.700Z,64.45
2022-12-29T22:57:56.839Z,70.78
2022-12-29T23:00:43.261Z,67.60
2022-12-29T23:06:29.755Z,67.57
2022-12-29T23:09:20.477Z,68.18
2022-12-29T23:12:07.023Z,71.00
2022-12-29T23:14:53.765Z,68.38
2022-12-29T23:17:40.305Z,69.60
2022-12-29T23:20:27.236Z,63.85
2022-12-29T23:23:14.039Z,65.90
2022-12-29T23:26:11.093Z,63.28
2022-12-29T23:29:00.754Z,68.10
2022-12-29T23:31:47.894Z,63.50
2022-12-29T23:34:34.899Z,61.67
2022-12-29T23:37:21.620Z,62.95
2022-12-29T23:40:08.472Z,61.88
2022-12-29T23:42:55.626Z,61.88
2022-12-29T23:45:50.599Z,65.47
2022-12-29T23:48:37.844Z,65.78
2022-12-29T23:51:24.373Z,61.35
2022-12-29T23:54:11.488Z,62.08
2022-12-29T23:56:57.925Z,65.93
2022-12-29T23:59:44.407Z,62.65
